createdAt,value
2022-10-05T00:01:38.607Z,78.76
2022-10-05T00:04:24.217Z,78.76
2022-10-05T00:07:09.256Z,78.93
2022-10-05T00:09:36.518Z,79.20
2022-10-05T00:12:18.859Z,79.13
2022-10-05T00:14:48.586Z,79.46
2022-10-05T00:17:23.691Z,79.34
2022-10-05T00:19:54.484Z,79.28
2022-10-05T00:22:33.183Z,79.40
2022-10-05T00:25:03.218Z,79.49
2022-10-05T00:27:38.893Z,79.41
2022-10-05T00:30:19.235Z,79.25
2022-10-05T00:32:46.998Z,79.17
2022-10-05T00:35:16.435Z,79.67
2022-10-05T00:37:45.375Z,79.33
2022-10-05T00:40:50.036Z,79.28
2022-10-05T00:43:59.792Z,79.52
2022-10-05T00:46:52.511Z,79.13
2022-10-05T00:49:45.643Z,79.32
2022-10-05T00:52:52.859Z,79.61
2022-10-05T00:55:55.022Z,79.33
2022-10-05T00:58:38.714Z,79.72
2022-10-05T01:01:47.033Z,79.59
2022-10-05T01:04:32.398Z,79.50
2022-10-05T01:07:38.943Z,79.91
2022-10-05T01:10:18.046Z,80.17
2022-10-05T01:13:02.406Z,80.16
2022-10-05T01:15:43.272Z,79.88
2022-10-05T01:18:16.050Z,79.61
2022-10-05T01:21:12.039Z,80.02
2022-10-05T01:24:09.692Z,80.07
2022-10-05T01:26:54.562Z,79.63
2022-10-05T01:29:38.547Z,79.96
2022-10-05T01:32:12.570Z,79.64
2022-10-05T01:35:26.806Z,79.50
2022-10-05T01:38:11.236Z,79.76
2022-10-05T01:40:46.751Z,80.04
2022-10-05T01:43:46.055Z,80.35
2022-10-05T01:46:31.457Z,80.53
2022-10-05T01:49:38.821Z,80.15
2022-10-05T01:52:25.245Z,80.17
2022-10-05T01:55:20.676Z,80.28
2022-10-05T01:58:43.909Z,80.45
2022-10-05T02:01:25.910Z,80.46
2022-10-05T02:04:10.614Z,80.26
2022-10-05T02:06:47.948Z,79.90
2022-10-05T02:09:34.014Z,80.14
2022-10-05T02:12:07.243Z,80.57
2022-10-05T02:14:49.357Z,80.23
2022-10-05T02:17:38.753Z,80.42
2022-10-05T02:20:11.748Z,80.32
2022-10-05T02:22:46.983Z,80.29
2022-10-05T02:25:25.300Z,80.24
2022-10-05T02:28:14.326Z,80.47
2022-10-05T02:30:56.815Z,80.54
2022-10-05T02:33:28.748Z,80.50
2022-10-05T02:36:13.148Z,79.73
2022-10-05T02:39:14.967Z,80.01
2022-10-05T02:41:47.544Z,79.65
2022-10-05T02:44:31.999Z,79.69
2022-10-05T02:47:15.498Z,79.83
2022-10-05T02:50:00.651Z,79.90
2022-10-05T02:53:05.233Z,79.83
2022-10-05T02:55:48.061Z,79.40
2022-10-05T02:58:27.748Z,79.51
2022-10-05T03:01:07.550Z,79.59
2022-10-05T03:03:51.623Z,79.43
2022-10-05T03:06:29.098Z,79.11
2022-10-05T03:09:07.276Z,78.99
2022-10-05T03:12:00.239Z,79.12
2022-10-05T03:14:42.231Z,79.03
2022-10-05T03:17:21.107Z,79.55
2022-10-05T03:20:46.072Z,79.75
2022-10-05T03:23:25.655Z,79.63
2022-10-05T03:26:14.480Z,79.41
2022-10-05T03:29:16.635Z,79.58
2022-10-05T03:31:54.731Z,79.99
2022-10-05T03:34:46.516Z,80.08
2022-10-05T03:37:57.688Z,80.15
2022-10-05T03:40:56.487Z,80.16
2022-10-05T03:44:01.469Z,80.32
2022-10-05T03:46:48.404Z,80.47
2022-10-05T03:49:28.750Z,80.19
2022-10-05T03:52:25.210Z,80.08
2022-10-05T03:55:37.885Z,79.91
2022-10-05T03:58:17.083Z,79.53
2022-10-05T04:00:51.611Z,79.93
2022-10-05T04:03:52.261Z,78.55
2022-10-05T04:06:30.549Z,75.93
2022-10-05T04:09:03.974Z,73.37
2022-10-05T04:11:42.156Z,71.72
2022-10-05T04:14:39.468Z,70.58
2022-10-05T04:17:15.706Z,70.14
2022-10-05T04:20:20.170Z,69.78
2022-10-05T04:23:09.850Z,69.89
2022-10-05T04:25:56.799Z,70.37
2022-10-05T04:28:51.075Z,70.83
2022-10-05T04:31:42.974Z,71.36
2022-10-05T04:34:52.869Z,71.76
2022-10-05T04:37:46.320Z,72.07
2022-10-05T04:40:40.911Z,72.01
2022-10-05T04:43:51.708Z,72.51
2022-10-05T04:46:43.338Z,72.62
2022-10-05T04:49:49.237Z,73.00
2022-10-05T04:52:59.953Z,73.45
2022-10-05T04:55:56.328Z,73.44
2022-10-05T04:58:59.692Z,73.43
2022-10-05T05:02:00.400Z,73.81
2022-10-05T05:04:54.623Z,73.63
2022-10-05T05:08:01.874Z,73.78
2022-10-05T05:10:52.739Z,73.69
2022-10-05T05:13:53.407Z,73.30
2022-10-05T05:16:39.720Z,72.78
2022-10-05T05:19:09.427Z,72.64
2022-10-05T05:22:07.598Z,72.38
2022-10-05T05:25:35.423Z,72.29
2022-10-05T05:28:35.957Z,72.17
2022-10-05T05:31:34.547Z,71.84
2022-10-05T05:34:34.491Z,71.51
2022-10-05T05:37:12.059Z,71.31
2022-10-05T05:40:28.075Z,70.55
2022-10-05T05:43:30.148Z,70.39
2022-10-05T05:46:12.986Z,70.32
2022-10-05T05:48:47.402Z,70.58
2022-10-05T05:51:41.128Z,70.60
2022-10-05T05:54:48.603Z,70.34
2022-10-05T05:57:43.446Z,70.06
2022-10-05T06:00:21.771Z,69.74
2022-10-05T06:03:02.103Z,69.15
2022-10-05T06:05:54.499Z,68.92
2022-10-05T06:08:44.592Z,68.77
2022-10-05T06:11:43.165Z,69.19
2022-10-05T06:14:32.458Z,68.91
2022-10-05T06:17:26.677Z,69.06
2022-10-05T06:20:02.432Z,69.09
2022-10-05T06:22:42.847Z,69.04
2022-10-05T06:25:12.777Z,69.04
2022-10-05T06:28:11.334Z,69.14
2022-10-05T06:31:12.714Z,68.90
2022-10-05T06:33:54.167Z,68.84
2022-10-05T06:36:43.681Z,68.65
2022-10-05T06:40:00.060Z,68.46
2022-10-05T06:42:44.299Z,68.43
2022-10-05T06:45:59.393Z,68.29
2022-10-05T06:49:06.176Z,68.34
2022-10-05T06:52:18.424Z,67.70
2022-10-05T06:55:17.625Z,67.55
2022-10-05T06:58:13.178Z,67.96
2022-10-05T07:01:16.984Z,67.33
2022-10-05T07:04:17.008Z,67.70
2022-10-05T07:06:57.805Z,67.66
2022-10-05T07:09:52.444Z,67.47
2022-10-05T07:12:53.081Z,67.33
2022-10-05T07:15:43.917Z,66.90
2022-10-05T07:18:40.480Z,67.42
2022-10-05T07:21:39.509Z,67.75
2022-10-05T07:24:52.589Z,67.63
2022-10-05T07:27:28.015Z,68.00
2022-10-05T07:30:11.712Z,67.82
2022-10-05T07:33:10.300Z,67.28
2022-10-05T07:37:03.096Z,67.92
2022-10-05T07:40:00.206Z,67.59
2022-10-05T07:42:48.803Z,67.58
2022-10-05T07:45:52.252Z,67.37
2022-10-05T07:48:43.031Z,67.46
2022-10-05T07:51:29.221Z,67.71
2022-10-05T07:54:40.513Z,67.53
2022-10-05T07:57:40.747Z,67.49
2022-10-05T08:00:18.715Z,67.44
2022-10-05T08:03:02.787Z,67.05
2022-10-05T08:05:34.703Z,67.06
2022-10-05T08:08:12.314Z,67.09
2022-10-05T08:11:05.545Z,67.09
2022-10-05T08:14:10.870Z,66.94
2022-10-05T08:16:38.776Z,66.74
2022-10-05T08:19:34.563Z,66.72
2022-10-05T08:22:09.440Z,66.64
2022-10-05T08:25:04.196Z,66.84
2022-10-05T08:27:49.553Z,66.50
2022-10-05T08:30:17.492Z,66.33
2022-10-05T08:32:55.804Z,66.19
2022-10-05T08:35:55.818Z,66.47
2022-10-05T08:38:43.153Z,66.36
2022-10-05T08:41:31.991Z,66.52
2022-10-05T08:44:47.818Z,66.47
2022-10-05T08:47:54.405Z,66.57
2022-10-05T08:50:58.935Z,66.43
2022-10-05T08:54:12.296Z,66.42
2022-10-05T08:56:56.169Z,66.46
2022-10-05T08:59:59.536Z,66.64
2022-10-05T09:03:02.737Z,66.44
2022-10-05T09:06:03.566Z,66.36
2022-10-05T09:09:14.425Z,66.70
2022-10-05T09:12:02.821Z,66.36
2022-10-05T09:15:01.282Z,66.73
2022-10-05T09:18:25.756Z,66.55
2022-10-05T09:21:05.247Z,65.94
2022-10-05T09:23:49.874Z,66.17
2022-10-05T09:26:45.680Z,66.03
2022-10-05T09:30:01.086Z,66.20
2022-10-05T09:33:25.758Z,66.02
2022-10-05T09:36:18.972Z,65.90
2022-10-05T09:39:18.871Z,66.02
2022-10-05T09:42:23.350Z,65.87
2022-10-05T09:45:35.782Z,65.54
2022-10-05T09:48:32.940Z,65.82
2022-10-05T09:51:36.608Z,65.57
2022-10-05T09:55:01.690Z,65.99
2022-10-05T09:57:59.623Z,65.87
2022-10-05T10:00:58.754Z,65.59
2022-10-05T10:04:10.061Z,65.81
2022-10-05T10:07:09.375Z,66.10
2022-10-05T10:10:21.798Z,66.13
2022-10-05T10:13:16.704Z,65.94
2022-10-05T10:16:34.175Z,65.99
2022-10-05T10:19:24.215Z,65.93
2022-10-05T10:22:43.768Z,65.92
2022-10-05T10:25:35.281Z,65.73
2022-10-05T10:28:25.635Z,65.74
2022-10-05T10:31:16.359Z,65.79
2022-10-05T10:33:55.470Z,65.67
2022-10-05T10:36:46.817Z,65.87
2022-10-05T10:39:36.674Z,66.27
2022-10-05T10:42:41.708Z,66.43
2022-10-05T10:45:19.694Z,66.05
2022-10-05T10:47:56.872Z,65.78
2022-10-05T10:50:44.686Z,66.08
2022-10-05T10:53:42.993Z,66.29
2022-10-05T10:56:51.545Z,65.79
2022-10-05T10:59:49.772Z,66.04
2022-10-05T11:02:44.113Z,66.02
2022-10-05T11:05:50.000Z,65.99
2022-10-05T11:09:04.266Z,65.63
2022-10-05T11:12:34.764Z,65.70
2022-10-05T11:15:30.791Z,65.96
2022-10-05T11:18:20.153Z,65.93
2022-10-05T11:21:25.686Z,65.76
2022-10-05T11:24:31.498Z,65.85
2022-10-05T11:27:46.487Z,65.97
2022-10-05T11:30:28.451Z,65.97
2022-10-05T11:33:28.209Z,66.17
2022-10-05T11:36:46.288Z,65.96
2022-10-05T11:40:00.464Z,65.82
2022-10-05T11:43:02.929Z,65.81
2022-10-05T11:45:43.537Z,65.78
2022-10-05T11:48:16.099Z,65.84
2022-10-05T11:51:09.240Z,65.92
2022-10-05T11:54:12.478Z,66.43
2022-10-05T11:56:55.143Z,66.05
2022-10-05T11:59:50.970Z,66.75
2022-10-05T12:02:52.986Z,68.92
2022-10-05T12:05:32.435Z,69.65
2022-10-05T12:08:04.881Z,68.85
2022-10-05T12:11:04.191Z,67.52
2022-10-05T12:14:05.179Z,66.86
2022-10-05T12:17:11.659Z,67.19
2022-10-05T12:20:01.255Z,67.20
2022-10-05T12:22:37.422Z,67.20
2022-10-05T12:25:16.308Z,67.84
2022-10-05T12:27:47.437Z,69.40
2022-10-05T12:31:01.683Z,69.63
2022-10-05T12:34:04.551Z,69.80
2022-10-05T12:37:08.289Z,69.43
2022-10-05T12:40:41.025Z,69.78
2022-10-05T12:43:33.492Z,68.52
2022-10-05T12:46:12.778Z,68.74
2022-10-05T12:49:01.763Z,68.19
2022-10-05T12:51:47.126Z,68.21
2022-10-05T12:54:55.227Z,68.07
2022-10-05T12:58:11.135Z,67.31
2022-10-05T13:00:57.334Z,68.58
2022-10-05T13:03:54.934Z,68.41
2022-10-05T13:06:55.637Z,68.71
2022-10-05T13:09:47.894Z,68.04
2022-10-05T13:12:44.771Z,67.95
2022-10-05T13:15:33.626Z,66.98
2022-10-05T13:18:31.137Z,66.73
2022-10-05T13:21:17.094Z,67.44
2022-10-05T13:24:26.691Z,67.99
2022-10-05T13:27:08.537Z,68.76
2022-10-05T13:29:42.215Z,69.25
2022-10-05T13:32:28.006Z,69.43
2022-10-05T13:35:17.738Z,69.46
2022-10-05T13:38:18.667Z,69.96
2022-10-05T13:41:16.112Z,70.43
2022-10-05T13:44:09.140Z,70.81
2022-10-05T13:47:12.508Z,69.71
2022-10-05T13:49:57.914Z,69.61
2022-10-05T13:53:02.297Z,70.55
2022-10-05T13:56:01.286Z,71.09
2022-10-05T13:58:59.583Z,70.90
2022-10-05T14:02:07.792Z,69.69
2022-10-05T14:04:53.132Z,68.47
2022-10-05T14:07:50.592Z,69.34
2022-10-05T14:10:38.337Z,67.61
2022-10-05T14:13:44.156Z,68.12
2022-10-05T14:16:23.764Z,67.63
2022-10-05T14:19:26.897Z,67.19
2022-10-05T14:22:13.236Z,67.26
2022-10-05T14:24:56.169Z,66.86
2022-10-05T14:27:30.745Z,66.72
2022-10-05T14:30:18.216Z,66.73
2022-10-05T14:33:03.104Z,66.81
2022-10-05T14:35:53.220Z,66.44
2022-10-05T14:38:58.053Z,66.34
2022-10-05T14:41:27.367Z,66.57
2022-10-05T14:44:04.805Z,66.39
2022-10-05T14:46:35.284Z,66.23
2022-10-05T14:49:21.901Z,66.36
2022-10-05T14:51:51.204Z,66.25
2022-10-05T14:54:57.424Z,64.29
2022-10-05T14:57:56.378Z,63.33
2022-10-05T15:00:24.428Z,63.30
2022-10-05T15:03:09.914Z,63.65
2022-10-05T15:05:59.543Z,63.87
2022-10-05T15:08:49.870Z,64.00
2022-10-05T15:11:54.954Z,64.66
2022-10-05T15:14:38.170Z,64.63
2022-10-05T15:17:30.998Z,64.76
2022-10-05T15:20:45.169Z,64.83
2022-10-05T15:23:27.816Z,65.20
2022-10-05T15:26:22.568Z,64.92
2022-10-05T15:28:58.700Z,64.89
2022-10-05T15:32:16.690Z,65.24
2022-10-05T15:34:56.607Z,65.22
2022-10-05T15:37:50.770Z,65.15
2022-10-05T15:40:21.258Z,65.37
2022-10-05T15:42:52.725Z,65.26
2022-10-05T15:45:37.552Z,65.17
2022-10-05T15:48:29.366Z,65.27
2022-10-05T15:51:31.875Z,65.47
2022-10-05T15:54:40.703Z,65.79
2022-10-05T15:57:39.859Z,65.54
2022-10-05T16:00:20.843Z,65.58
2022-10-05T16:03:12.543Z,65.92
2022-10-05T16:06:21.256Z,66.26
2022-10-05T16:09:06.304Z,66.12
2022-10-05T16:11:50.425Z,66.40
2022-10-05T16:14:50.129Z,66.42
2022-10-05T16:17:48.037Z,66.50
2022-10-05T16:20:23.497Z,66.46
2022-10-05T16:23:10.487Z,66.71
2022-10-05T16:25:50.166Z,66.46
2022-10-05T16:28:29.759Z,66.82
2022-10-05T16:31:19.390Z,66.96
2022-10-05T16:34:04.111Z,67.34
2022-10-05T16:36:32.177Z,67.55
2022-10-05T16:39:17.152Z,67.60
2022-10-05T16:42:32.412Z,67.86
2022-10-05T16:45:26.381Z,68.11
2022-10-05T16:48:13.298Z,68.03
2022-10-05T16:51:07.841Z,68.40
2022-10-05T16:54:05.348Z,68.21
2022-10-05T16:56:48.118Z,68.74
2022-10-05T16:59:49.581Z,68.78
2022-10-05T17:02:50.251Z,68.79
2022-10-05T17:05:59.893Z,69.03
2022-10-05T17:08:56.844Z,69.04
2022-10-05T17:11:55.280Z,69.42
2022-10-05T17:14:34.103Z,69.49
2022-10-05T17:17:08.941Z,69.85
2022-10-05T17:20:25.497Z,69.81
2022-10-05T17:23:18.449Z,69.91
2022-10-05T17:25:56.295Z,70.10
2022-10-05T17:29:04.915Z,70.33
2022-10-05T17:31:52.498Z,70.39
2022-10-05T17:34:19.440Z,70.40
2022-10-05T17:37:15.810Z,70.42
2022-10-05T17:39:49.411Z,70.45
2022-10-05T17:42:37.054Z,70.72
2022-10-05T17:45:33.298Z,71.03
2022-10-05T17:48:11.036Z,71.11
2022-10-05T17:51:06.143Z,70.84
2022-10-05T17:54:03.340Z,71.40
2022-10-05T17:56:56.030Z,71.94
2022-10-05T17:59:53.924Z,71.92
2022-10-05T18:02:42.803Z,71.94
2022-10-05T18:05:12.693Z,71.85
2022-10-05T18:07:48.716Z,71.95
2022-10-05T18:10:29.138Z,72.07
2022-10-05T18:12:59.163Z,72.32
2022-10-05T18:15:26.107Z,72.38
2022-10-05T18:18:32.331Z,72.24
2022-10-05T18:21:14.608Z,72.53
2022-10-05T18:23:59.318Z,72.50
2022-10-05T18:26:53.504Z,72.42
2022-10-05T18:30:17.897Z,72.95
2022-10-05T18:33:03.531Z,72.85
2022-10-05T18:36:50.475Z,72.87
2022-10-05T18:39:51.907Z,73.28
2022-10-05T18:42:56.055Z,73.22
2022-10-05T18:45:32.418Z,73.29
2022-10-05T18:48:17.701Z,73.14
2022-10-05T18:51:04.051Z,73.19
2022-10-05T18:53:57.326Z,74.74
2022-10-05T18:56:35.874Z,75.18
2022-10-05T18:59:28.330Z,76.76
2022-10-05T19:02:24.787Z,78.19
2022-10-05T19:05:42.580Z,78.72
2022-10-05T19:08:43.643Z,79.10
2022-10-05T19:11:43.292Z,78.96
2022-10-05T19:14:54.757Z,79.07
2022-10-05T19:18:05.814Z,79.16
2022-10-05T19:21:13.399Z,79.15
2022-10-05T19:24:16.574Z,79.04
2022-10-05T19:27:13.990Z,78.84
2022-10-05T19:30:19.760Z,79.35
2022-10-05T19:33:17.538Z,79.11
2022-10-05T19:35:57.531Z,79.26
2022-10-05T19:39:36.144Z,79.64
2022-10-05T19:43:01.706Z,79.43
2022-10-05T19:45:33.107Z,79.56
2022-10-05T19:48:46.492Z,79.34
2022-10-05T19:51:30.635Z,79.43
2022-10-05T19:54:21.929Z,79.37
2022-10-05T19:56:53.450Z,79.55
2022-10-05T19:59:26.010Z,79.23
2022-10-05T20:01:56.152Z,79.86
2022-10-05T20:04:43.952Z,79.70
2022-10-05T20:07:24.170Z,79.91
2022-10-05T20:10:16.873Z,80.27
2022-10-05T20:12:55.944Z,80.20
2022-10-05T20:15:53.275Z,79.73
2022-10-05T20:18:58.271Z,79.93
2022-10-05T20:21:45.654Z,79.78
2022-10-05T20:24:26.844Z,79.92
2022-10-05T20:27:06.409Z,80.00
2022-10-05T20:29:41.536Z,80.29
2022-10-05T20:32:18.190Z,80.29
2022-10-05T20:34:47.821Z,80.72
2022-10-05T20:37:17.763Z,81.84
2022-10-05T20:39:44.840Z,82.18
2022-10-05T20:42:12.111Z,82.54
2022-10-05T20:44:39.161Z,82.44
2022-10-05T20:47:09.076Z,82.94
2022-10-05T20:49:38.548Z,83.34
2022-10-05T20:52:09.620Z,83.21
2022-10-05T20:54:40.087Z,83.15
2022-10-05T20:57:07.556Z,82.91
2022-10-05T20:59:35.954Z,82.38
2022-10-05T21:02:03.863Z,82.27
2022-10-05T21:04:40.343Z,82.27
2022-10-05T21:07:08.356Z,81.86
2022-10-05T21:09:38.324Z,81.52
2022-10-05T21:12:05.528Z,81.32
2022-10-05T21:14:34.469Z,81.34
2022-10-05T21:17:03.678Z,80.81
2022-10-05T21:19:31.143Z,81.03
2022-10-05T21:21:59.170Z,80.36
2022-10-05T21:24:26.337Z,80.91
2022-10-05T21:26:57.623Z,80.31
2022-10-05T21:29:24.829Z,79.94
2022-10-05T21:31:52.076Z,79.74
2022-10-05T21:34:19.132Z,79.55
2022-10-05T21:36:46.124Z,79.45
2022-10-05T21:39:13.133Z,78.63
2022-10-05T21:41:40.192Z,78.62
2022-10-05T21:44:07.257Z,78.50
2022-10-05T21:46:36.773Z,78.61
2022-10-05T21:49:05.445Z,78.40
2022-10-05T21:51:33.939Z,78.67
2022-10-05T21:54:06.693Z,78.52
2022-10-05T21:56:38.508Z,78.27
2022-10-05T21:59:09.539Z,78.43
2022-10-05T22:01:36.554Z,78.18
2022-10-05T22:04:05.558Z,78.28
2022-10-05T22:06:34.217Z,77.68
2022-10-05T22:09:02.040Z,77.73
2022-10-05T22:11:29.159Z,77.64
2022-10-05T22:14:02.481Z,77.45
2022-10-05T22:16:33.750Z,77.50
2022-10-05T22:19:06.066Z,77.28
2022-10-05T22:21:38.004Z,77.56
2022-10-05T22:24:05.567Z,77.77
2022-10-05T22:26:34.805Z,77.86
2022-10-05T22:29:02.602Z,77.50
2022-10-05T22:31:29.772Z,77.42
2022-10-05T22:33:56.784Z,77.58
2022-10-05T22:36:23.926Z,77.79
2022-10-05T22:38:50.929Z,77.51
2022-10-05T22:41:18.510Z,77.54
2022-10-05T22:43:48.786Z,77.49
2022-10-05T22:46:16.037Z,77.39
2022-10-05T22:48:43.282Z,77.00
2022-10-05T22:51:10.407Z,76.85
2022-10-05T22:53:37.408Z,76.40
2022-10-05T22:56:07.882Z,75.96
2022-10-05T22:58:35.799Z,75.96
2022-10-05T23:01:06.679Z,75.77
2022-10-05T23:03:34.648Z,75.42
2022-10-05T23:06:09.028Z,75.28
2022-10-05T23:08:38.243Z,75.58
2022-10-05T23:11:15.043Z,75.25
2022-10-05T23:13:42.165Z,75.63
2022-10-05T23:16:19.066Z,75.72
2022-10-05T23:18:49.251Z,75.81
2022-10-05T23:21:17.897Z,75.70
2022-10-05T23:23:48.858Z,75.88
2022-10-05T23:26:17.308Z,76.05
2022-10-05T23:28:49.088Z,75.70
2022-10-05T23:31:20.963Z,75.91
2022-10-05T23:33:48.426Z,75.89
2022-10-05T23:36:23.363Z,76.14
2022-10-05T23:38:50.644Z,76.28
2022-10-05T23:41:19.649Z,76.19
2022-10-05T23:43:47.257Z,76.00
2022-10-05T23:46:17.647Z,76.15
2022-10-05T23:48:44.868Z,76.02
2022-10-05T23:51:14.448Z,76.32
2022-10-05T23:53:41.680Z,75.90
2022-10-05T23:56:08.814Z,76.13
2022-10-05T23:58:35.784Z,75.83
